Buffalo, NY (14228)

6:26 AM EDT on June 30, 2015 (GMT -0400)
Audubon Industrial Park | | Change Station
CLOSE
Current Station
Personal Weather Station
Location: Amherst, NY
Elevation: 577 ft
Nearby Weather Stations

Elev 577 ft 43.03 °N, 78.80 °W | Updated 12 minutes ago

Rain
Rain
60.8 °F
Feels Like 60.8 °F
N
2.2
Wind Variable Wind from ESE

Today
High -- | Low -- °F
--% Chance of Precip.
Yesterday
High -- | Low -- °F
Precip. -- in
5:39 AM 8:58 PM
Waxing Gibbous, 97% visible
Pressure 29.88 in
Visibility 10.0 miles
Clouds Overcast 7000 ft
Dew Point 60 °F
Humidity 97%
Rainfall 0.05 in
Snow Depth Not available.
UV 0 out of 12
Pollen 2.40 out of 12
Air Quality Not available.
Flu Activity Sporadic
METAR KROC 300954Z 12005KT 10SM OVC070 17/14 A2988 RMK AO2 RAB02E49 SLP117 BINOVC N P0000 T01720144

More Conditions Fewer Conditions

Pressure 29.88 in
Visibility 10.0 miles
Clouds Overcast 7000 ft
Dew Point 60 °F
Humidity 97%
Rainfall 0.05 in
Snow Depth Not available.
UV 0 out of 12
Pollen 2.40 out of 12
Air Quality Not available.
Flu Activity Sporadic
METAR KROC 300954Z 12005KT 10SM OVC070 17/14 A2988 RMK AO2 RAB02E49 SLP117 BINOVC N P0000 T01720144

More Conditions Fewer Conditions

10-Day Weather Forecast

×

Almanac

Astronomy

Jun. 30, 2015 Rise Set
Actual Time
Civil Twilight
Nautical Twilight
Astronomical Twilight
Moon
Length of Visible Light
Length of Day
Tomorrow will be .
, % of the Moon is Illuminated

Today's Extremes

State Highs State Lows

Community

WunderPhotos

Upload Photos

1,833,985 photos uploaded!

WunderBlogs® & News

Nearby

Air Quality

  Air Quality AQ Index Pollutant
Not available.

Snow Depth

Station Depth Elevation

Earthquake Activity

City Distance Mag. Time & Date
Minimum magnitude displayed is 2.5.

Coastal Water Temperatures

Place Temperature

Stations

Nearby Weather Stations

Station Location Temp. Windchill Dew Point Humidity Wind Precip. Elev Updated Type